createdAt,value
2019-06-20T00:00:24.907Z,17.13
2019-06-20T00:01:24.866Z,17.10
2019-06-20T00:02:24.878Z,17.09
2019-06-20T00:03:24.860Z,17.10
2019-06-20T00:04:24.832Z,17.12
2019-06-20T00:05:24.793Z,17.13
2019-06-20T00:06:24.770Z,17.17
2019-06-20T00:07:24.754Z,17.22
2019-06-20T00:08:24.762Z,17.17
2019-06-20T00:09:24.736Z,17.12
2019-06-20T00:10:24.769Z,17.22
2019-06-20T00:11:24.700Z,17.12
2019-06-20T00:12:24.690Z,17.12
2019-06-20T00:13:24.678Z,17.24
2019-06-20T00:14:24.662Z,17.28
2019-06-20T00:15:24.632Z,17.13
2019-06-20T00:16:24.623Z,17.13
2019-06-20T00:17:24.610Z,17.19
2019-06-20T00:18:24.584Z,17.12
2019-06-20T00:19:24.555Z,17.09
2019-06-20T00:20:24.537Z,17.16
2019-06-20T00:21:24.578Z,17.22
2019-06-20T00:22:24.524Z,17.09
2019-06-20T00:23:24.508Z,17.17
2019-06-20T00:24:24.453Z,17.13
2019-06-20T00:25:24.446Z,17.09
2019-06-20T00:26:24.440Z,17.10
2019-06-20T00:27:24.456Z,17.17
2019-06-20T00:28:24.412Z,17.07
2019-06-20T00:29:24.373Z,17.22
2019-06-20T00:30:24.355Z,17.19
2019-06-20T00:31:32.998Z,17.13
2019-06-20T00:33:28.781Z,17.19
2019-06-20T00:34:28.743Z,17.16
2019-06-20T00:35:28.776Z,17.27
2019-06-20T00:36:28.716Z,17.14
2019-06-20T00:37:28.704Z,17.20
2019-06-20T00:38:28.671Z,17.17
2019-06-20T00:39:28.679Z,17.16
2019-06-20T00:40:28.650Z,17.27
2019-06-20T00:41:28.651Z,17.16
2019-06-20T00:42:28.606Z,17.25
2019-06-20T00:43:28.580Z,17.17
2019-06-20T00:44:28.594Z,17.20
2019-06-20T00:45:28.543Z,17.20
2019-06-20T00:46:28.554Z,17.14
2019-06-20T00:47:28.524Z,17.13
2019-06-20T00:48:28.517Z,17.07
2019-06-20T00:49:28.472Z,17.12
2019-06-20T00:50:28.455Z,17.19
2019-06-20T00:51:28.456Z,17.09
2019-06-20T00:52:28.444Z,17.07
2019-06-20T00:53:28.464Z,17.07
2019-06-20T00:54:28.491Z,17.16
2019-06-20T00:55:28.431Z,17.07
2019-06-20T00:56:28.385Z,16.98
2019-06-20T00:57:28.328Z,17.12
2019-06-20T00:58:28.351Z,17.10
2019-06-20T00:59:28.347Z,17.12
2019-06-20T01:00:28.288Z,17.16
2019-06-20T01:01:28.294Z,17.13
2019-06-20T01:02:28.261Z,17.13
2019-06-20T01:03:28.229Z,17.17
2019-06-20T01:04:28.231Z,17.10
2019-06-20T01:05:28.249Z,17.22
2019-06-20T01:06:28.196Z,17.17
2019-06-20T01:07:28.178Z,17.20
2019-06-20T01:08:28.154Z,17.09
2019-06-20T01:09:28.118Z,17.12
2019-06-20T01:10:28.121Z,17.14
2019-06-20T01:11:28.083Z,17.19
2019-06-20T01:12:28.071Z,17.10
2019-06-20T01:13:33.537Z,17.24
2019-06-20T01:14:28.057Z,17.19
2019-06-20T01:15:28.034Z,17.16
2019-06-20T01:16:28.013Z,17.17
2019-06-20T01:17:28.008Z,17.16
2019-06-20T01:18:28.008Z,17.25
2019-06-20T01:19:27.980Z,17.25
2019-06-20T01:20:27.965Z,17.31
2019-06-20T01:21:27.927Z,17.28
2019-06-20T01:22:27.887Z,17.30
2019-06-20T01:23:27.887Z,17.34
2019-06-20T01:24:27.872Z,17.30
2019-06-20T01:25:27.842Z,17.34
2019-06-20T01:26:27.833Z,17.34
2019-06-20T01:27:27.834Z,17.39
2019-06-20T01:28:27.806Z,17.39
2019-06-20T01:29:27.767Z,17.46
2019-06-20T01:30:27.785Z,17.41
2019-06-20T01:31:27.750Z,17.39
2019-06-20T01:32:27.715Z,17.41
2019-06-20T01:33:27.700Z,17.43
2019-06-20T01:34:27.694Z,17.45
2019-06-20T01:35:27.687Z,17.46
2019-06-20T01:36:27.647Z,17.46
2019-06-20T01:37:27.645Z,17.45
2019-06-20T01:38:27.633Z,17.47
2019-06-20T01:39:27.616Z,17.50
2019-06-20T01:40:27.582Z,17.47
2019-06-20T01:41:27.583Z,17.43
2019-06-20T01:42:27.557Z,17.43
2019-06-20T01:43:27.544Z,17.41
2019-06-20T01:44:27.526Z,17.43
2019-06-20T01:45:27.501Z,17.46
2019-06-20T01:46:27.513Z,17.50
2019-06-20T01:47:27.468Z,17.45
2019-06-20T01:48:27.465Z,17.43
2019-06-20T01:49:27.437Z,17.50
2019-06-20T01:50:27.428Z,17.46
2019-06-20T01:51:27.433Z,17.50
2019-06-20T01:52:27.387Z,17.49
2019-06-20T01:53:27.361Z,17.56
2019-06-20T01:54:27.358Z,17.50
2019-06-20T01:55:27.347Z,17.43
2019-06-20T01:56:27.304Z,17.46
2019-06-20T01:57:27.273Z,17.52
2019-06-20T01:58:27.283Z,17.46
2019-06-20T01:59:27.243Z,17.56
2019-06-20T02:00:27.232Z,17.50
2019-06-20T02:01:27.205Z,17.47
2019-06-20T02:02:27.193Z,17.52
2019-06-20T02:03:27.186Z,17.54
2019-06-20T02:04:27.168Z,17.54
2019-06-20T02:05:27.180Z,17.53
2019-06-20T02:06:27.151Z,17.59
2019-06-20T02:07:28.268Z,17.56
2019-06-20T02:08:27.092Z,17.63
2019-06-20T02:09:27.077Z,17.53
2019-06-20T02:10:27.058Z,17.49
2019-06-20T02:11:27.041Z,17.47
2019-06-20T02:12:27.037Z,17.53
2019-06-20T02:13:27.032Z,17.54
2019-06-20T02:14:26.993Z,17.57
2019-06-20T02:15:27.004Z,17.53
2019-06-20T02:16:26.957Z,17.50
2019-06-20T02:17:26.941Z,17.62
2019-06-20T02:18:26.915Z,17.59
2019-06-20T02:19:26.903Z,17.53
2019-06-20T02:20:26.882Z,17.63
2019-06-20T02:21:26.876Z,17.57
2019-06-20T02:22:26.852Z,17.53
2019-06-20T02:23:26.830Z,17.56
2019-06-20T02:24:26.815Z,17.53
2019-06-20T02:25:26.798Z,17.53
2019-06-20T02:26:26.801Z,17.52
2019-06-20T02:27:26.773Z,17.45
2019-06-20T02:28:26.745Z,17.56
2019-06-20T02:29:26.727Z,17.54
2019-06-20T02:30:26.735Z,17.56
2019-06-20T02:31:26.692Z,17.52
2019-06-20T02:32:26.671Z,17.53
2019-06-20T02:33:26.665Z,17.50
2019-06-20T02:34:26.639Z,17.50
2019-06-20T02:35:26.623Z,17.52
2019-06-20T02:36:26.604Z,17.54
2019-06-20T02:37:26.591Z,17.54
2019-06-20T02:38:26.573Z,17.50
2019-06-20T02:39:26.552Z,17.63
2019-06-20T02:40:26.548Z,17.53
2019-06-20T02:41:26.515Z,17.52
2019-06-20T02:42:26.504Z,17.59
2019-06-20T02:43:26.480Z,17.56
2019-06-20T02:44:30.425Z,17.53
2019-06-20T02:45:26.449Z,17.54
2019-06-20T02:46:26.434Z,17.56
2019-06-20T02:47:26.406Z,17.53
2019-06-20T02:48:26.394Z,17.56
2019-06-20T02:49:26.378Z,17.56
2019-06-20T02:50:26.364Z,17.53
2019-06-20T02:51:26.343Z,17.54
2019-06-20T02:52:26.326Z,17.50
2019-06-20T02:53:26.310Z,17.47
2019-06-20T02:54:26.294Z,17.52
2019-06-20T02:55:26.278Z,17.57
2019-06-20T02:56:26.257Z,17.52
2019-06-20T02:57:26.241Z,17.49
2019-06-20T02:58:26.222Z,17.53
2019-06-20T02:59:26.208Z,17.52
2019-06-20T03:00:26.191Z,17.53
2019-06-20T03:01:26.167Z,17.45
2019-06-20T03:02:26.167Z,17.56
2019-06-20T03:03:26.147Z,17.56
2019-06-20T03:04:26.133Z,17.46
2019-06-20T03:05:26.131Z,17.47
2019-06-20T03:06:26.084Z,17.49
2019-06-20T03:07:26.086Z,17.56
2019-06-20T03:08:26.043Z,17.54
2019-06-20T03:09:26.069Z,17.46
2019-06-20T03:10:26.053Z,17.46
2019-06-20T03:11:26.018Z,17.45
2019-06-20T03:12:25.980Z,17.45
2019-06-20T03:13:25.961Z,17.49
2019-06-20T03:14:25.958Z,17.46
2019-06-20T03:15:25.934Z,17.46
2019-06-20T03:16:25.934Z,17.49
2019-06-20T03:17:25.916Z,17.46
2019-06-20T03:18:25.880Z,17.47
2019-06-20T03:19:25.897Z,17.47
2019-06-20T03:20:25.847Z,17.43
2019-06-20T03:21:25.823Z,17.46
2019-06-20T03:22:25.800Z,17.43
2019-06-20T03:23:25.795Z,17.43
2019-06-20T03:24:25.769Z,17.45
2019-06-20T03:25:25.765Z,17.38
2019-06-20T03:26:25.763Z,17.39
2019-06-20T03:27:25.734Z,17.39
2019-06-20T03:28:25.729Z,17.38
2019-06-20T03:29:25.720Z,17.39
2019-06-20T03:30:25.686Z,17.38
2019-06-20T03:31:25.681Z,17.34
2019-06-20T03:32:25.637Z,17.39
2019-06-20T03:33:25.640Z,17.34
2019-06-20T03:34:25.601Z,17.35
2019-06-20T03:35:25.581Z,17.39
2019-06-20T03:36:25.562Z,17.37
2019-06-20T03:37:25.540Z,17.45
2019-06-20T03:38:25.548Z,17.37
2019-06-20T03:39:25.548Z,17.35
2019-06-20T03:40:25.495Z,17.34
2019-06-20T03:41:25.494Z,17.39
2019-06-20T03:42:25.475Z,17.39
2019-06-20T03:43:25.452Z,17.37
2019-06-20T03:44:25.442Z,17.37
2019-06-20T03:45:25.407Z,17.38
2019-06-20T03:46:25.393Z,17.41
2019-06-20T03:47:25.362Z,17.41
2019-06-20T03:48:25.351Z,17.37
2019-06-20T03:49:25.335Z,17.39
2019-06-20T03:50:25.313Z,17.45
2019-06-20T03:51:25.313Z,17.41
2019-06-20T03:52:25.297Z,17.41
2019-06-20T03:53:25.261Z,17.43
2019-06-20T03:54:25.248Z,17.41
2019-06-20T03:55:25.236Z,17.45
2019-06-20T03:56:25.236Z,17.45
2019-06-20T03:57:25.189Z,17.38
2019-06-20T03:58:25.195Z,17.49
2019-06-20T03:59:25.176Z,17.43
2019-06-20T04:00:25.235Z,17.46
2019-06-20T04:01:25.121Z,17.41
2019-06-20T04:02:25.124Z,17.43
2019-06-20T04:03:25.085Z,17.45
2019-06-20T04:04:25.099Z,17.39
2019-06-20T04:05:25.079Z,17.41
2019-06-20T04:06:25.040Z,17.43
2019-06-20T04:07:25.017Z,17.41
2019-06-20T04:08:25.009Z,17.41
2019-06-20T04:09:25.017Z,17.39
2019-06-20T04:10:24.975Z,17.49
2019-06-20T04:11:24.957Z,17.46
2019-06-20T04:12:24.947Z,17.43
2019-06-20T04:13:24.959Z,17.38
2019-06-20T04:14:24.932Z,17.46
2019-06-20T04:15:24.882Z,17.37
2019-06-20T04:16:24.874Z,17.46
2019-06-20T04:17:24.843Z,17.47
2019-06-20T04:18:24.844Z,17.45
2019-06-20T04:19:24.820Z,17.38
2019-06-20T04:20:24.795Z,17.38
2019-06-20T04:21:24.807Z,17.38
2019-06-20T04:22:24.773Z,17.32
2019-06-20T04:23:24.811Z,17.43
2019-06-20T04:24:27.784Z,17.28
2019-06-20T04:25:24.734Z,17.35
2019-06-20T04:26:24.708Z,17.31
2019-06-20T04:27:24.663Z,17.30
2019-06-20T04:28:24.672Z,17.38
2019-06-20T04:29:24.684Z,17.37
2019-06-20T04:30:24.669Z,17.41
2019-06-20T04:31:24.602Z,17.39
2019-06-20T04:32:24.586Z,17.41
2019-06-20T04:33:24.567Z,17.39
2019-06-20T04:34:24.544Z,17.43
2019-06-20T04:35:24.529Z,17.39
2019-06-20T04:36:24.526Z,17.43
2019-06-20T04:37:24.539Z,17.37
2019-06-20T04:38:24.482Z,17.41
2019-06-20T04:39:24.481Z,17.39
2019-06-20T04:40:24.460Z,17.39
2019-06-20T04:41:24.424Z,17.43
2019-06-20T04:42:24.415Z,17.41
2019-06-20T04:43:24.388Z,17.38
2019-06-20T04:44:24.378Z,17.41
2019-06-20T04:45:34.624Z,17.41
2019-06-20T04:46:24.362Z,17.47
2019-06-20T04:47:24.364Z,17.47
2019-06-20T04:48:24.328Z,17.49
2019-06-20T04:49:24.311Z,17.46
2019-06-20T04:50:24.277Z,17.52
2019-06-20T04:51:24.285Z,17.49
2019-06-20T04:52:24.239Z,17.49
2019-06-20T04:53:24.219Z,17.47
2019-06-20T04:54:24.194Z,17.52
2019-06-20T04:55:24.213Z,17.47
2019-06-20T04:56:24.175Z,17.46
2019-06-20T04:57:24.166Z,17.50
2019-06-20T04:58:24.152Z,17.54
2019-06-20T04:59:24.111Z,17.54
2019-06-20T05:00:24.114Z,17.47
2019-06-20T05:01:24.078Z,17.50
2019-06-20T05:02:24.093Z,17.56
2019-06-20T05:03:24.045Z,17.57
2019-06-20T05:04:24.042Z,17.57
2019-06-20T05:05:24.053Z,17.50
2019-06-20T05:06:23.992Z,17.71
2019-06-20T05:07:23.972Z,17.62
2019-06-20T05:08:23.980Z,17.56
2019-06-20T05:09:23.940Z,17.53
2019-06-20T05:10:23.926Z,17.57
2019-06-20T05:11:23.908Z,17.71
2019-06-20T05:12:23.889Z,17.66
2019-06-20T05:13:23.868Z,17.69
2019-06-20T05:14:23.862Z,17.71
2019-06-20T05:15:23.835Z,17.66
2019-06-20T05:16:23.840Z,17.56
2019-06-20T05:17:23.851Z,17.65
2019-06-20T05:18:23.824Z,17.68
2019-06-20T05:19:23.771Z,17.69
2019-06-20T05:20:23.750Z,17.59
2019-06-20T05:21:23.757Z,17.54
2019-06-20T05:22:23.713Z,17.57
2019-06-20T05:23:23.706Z,17.68
2019-06-20T05:24:25.646Z,17.53
2019-06-20T05:25:23.687Z,17.59
2019-06-20T05:26:23.680Z,17.53
2019-06-20T05:27:23.628Z,17.53
2019-06-20T05:28:23.611Z,17.56
2019-06-20T05:29:23.596Z,17.66
2019-06-20T05:30:23.593Z,17.57
2019-06-20T05:31:23.561Z,17.59
2019-06-20T05:32:23.545Z,17.52
2019-06-20T05:33:23.549Z,17.68
2019-06-20T05:34:23.514Z,17.62
2019-06-20T05:35:23.526Z,17.62
2019-06-20T05:36:23.470Z,17.52
2019-06-20T05:37:23.464Z,17.68
2019-06-20T05:38:23.440Z,17.62
2019-06-20T05:39:23.430Z,17.69
2019-06-20T05:40:23.410Z,17.78
2019-06-20T05:41:23.412Z,17.68
2019-06-20T05:42:23.388Z,17.72
2019-06-20T05:43:23.352Z,17.76
2019-06-20T05:44:23.361Z,17.75
2019-06-20T05:45:23.342Z,17.78
2019-06-20T05:46:23.299Z,17.93
2019-06-20T05:47:23.317Z,17.91
2019-06-20T05:48:23.288Z,17.91
2019-06-20T05:49:23.267Z,17.93
2019-06-20T05:50:23.265Z,18.06
2019-06-20T05:51:24.056Z,18.05
2019-06-20T05:52:23.203Z,17.90
2019-06-20T05:53:23.191Z,18.06
2019-06-20T05:54:23.174Z,18.03
2019-06-20T05:55:23.149Z,18.08
2019-06-20T05:56:23.143Z,18.12
2019-06-20T05:57:23.148Z,18.13
2019-06-20T05:58:23.112Z,18.12
2019-06-20T05:59:23.094Z,18.06
2019-06-20T06:00:23.108Z,18.08
2019-06-20T06:01:23.062Z,18.09
2019-06-20T06:02:23.079Z,18.15
2019-06-20T06:03:23.006Z,18.18
2019-06-20T06:04:23.030Z,18.20
2019-06-20T06:05:22.976Z,18.12
2019-06-20T06:06:23.008Z,18.08
2019-06-20T06:07:23.080Z,18.03
2019-06-20T06:08:22.945Z,18.09
2019-06-20T06:09:22.956Z,18.05
2019-06-20T06:10:23.238Z,18.08
2019-06-20T06:11:22.904Z,18.08
2019-06-20T06:12:22.895Z,18.09
2019-06-20T06:13:22.860Z,18.17
2019-06-20T06:14:22.822Z,18.17
2019-06-20T06:15:22.837Z,18.13
2019-06-20T06:16:27.519Z,18.23
2019-06-20T06:17:22.784Z,18.28
2019-06-20T06:18:22.775Z,18.24
2019-06-20T06:19:22.753Z,18.18
2019-06-20T06:20:22.755Z,18.21
2019-06-20T06:21:22.729Z,18.12
2019-06-20T06:22:22.723Z,18.13
2019-06-20T06:23:22.704Z,18.09
2019-06-20T06:24:22.677Z,18.12
2019-06-20T06:25:22.668Z,18.18
2019-06-20T06:26:22.717Z,18.12
2019-06-20T06:27:22.630Z,18.06
2019-06-20T06:28:22.608Z,18.09
2019-06-20T06:29:22.591Z,18.06
2019-06-20T06:30:22.651Z,18.11
2019-06-20T06:31:22.578Z,18.11
2019-06-20T06:32:39.926Z,18.05
2019-06-20T06:34:27.335Z,18.15
2019-06-20T06:35:26.947Z,18.21
2019-06-20T06:36:27.038Z,18.20
2019-06-20T06:37:26.923Z,18.23
2019-06-20T06:38:26.892Z,18.13
2019-06-20T06:39:26.890Z,18.20
2019-06-20T06:40:26.926Z,18.13
2019-06-20T06:41:26.827Z,18.17
2019-06-20T06:42:26.923Z,18.17
2019-06-20T06:43:26.836Z,18.20
2019-06-20T06:44:26.802Z,18.18
2019-06-20T06:45:26.823Z,18.17
2019-06-20T06:46:42.531Z,18.24
2019-06-20T06:47:26.846Z,18.27
2019-06-20T06:48:26.709Z,18.21
2019-06-20T06:49:26.699Z,18.24
2019-06-20T06:50:26.676Z,18.36
2019-06-20T06:51:26.661Z,18.43
2019-06-20T06:52:26.644Z,18.49
2019-06-20T06:53:26.623Z,18.61
2019-06-20T06:54:26.608Z,18.64
2019-06-20T06:55:27.672Z,18.68
2019-06-20T06:56:26.584Z,18.82
2019-06-20T06:57:26.580Z,18.85
2019-06-20T06:58:26.540Z,18.82
2019-06-20T06:59:26.536Z,18.93
2019-06-20T07:00:26.517Z,18.98
2019-06-20T07:01:26.501Z,19.00
2019-06-20T07:02:26.485Z,19.04
2019-06-20T07:03:26.461Z,19.01
2019-06-20T07:04:26.448Z,19.15
2019-06-20T07:05:26.438Z,19.13
2019-06-20T07:06:26.412Z,19.24
2019-06-20T07:07:26.436Z,19.37
2019-06-20T07:08:26.464Z,19.45
2019-06-20T07:09:26.377Z,19.56
2019-06-20T07:10:26.378Z,19.42
2019-06-20T07:11:26.363Z,19.42
2019-06-20T07:12:26.352Z,19.42
2019-06-20T07:13:26.306Z,19.32
2019-06-20T07:14:26.305Z,19.26
2019-06-20T07:15:26.287Z,19.34
2019-06-20T07:16:26.274Z,19.32
2019-06-20T07:17:26.250Z,19.39
2019-06-20T07:18:26.258Z,19.44
2019-06-20T07:19:26.221Z,19.35
2019-06-20T07:20:26.205Z,19.27
2019-06-20T07:21:26.205Z,19.22
2019-06-20T07:22:26.195Z,19.17
2019-06-20T07:23:26.170Z,18.97
2019-06-20T07:24:26.171Z,18.94
2019-06-20T07:25:26.129Z,18.93
2019-06-20T07:26:26.131Z,18.98
2019-06-20T07:27:26.248Z,18.98
2019-06-20T07:28:26.093Z,19.09
2019-06-20T07:29:26.099Z,19.08
2019-06-20T07:30:26.067Z,19.04
2019-06-20T07:31:26.044Z,19.19
2019-06-20T07:32:26.028Z,19.19
2019-06-20T07:33:26.019Z,19.32
2019-06-20T07:34:25.995Z,19.42
2019-06-20T07:35:25.990Z,19.50
2019-06-20T07:36:25.963Z,19.62
2019-06-20T07:37:25.984Z,19.63
2019-06-20T07:38:25.954Z,19.62
2019-06-20T07:39:25.920Z,19.70
2019-06-20T07:40:25.908Z,19.87
2019-06-20T07:41:25.902Z,19.99
2019-06-20T07:42:25.872Z,20.02
2019-06-20T07:43:25.863Z,20.05
2019-06-20T07:44:25.842Z,20.02
2019-06-20T07:45:27.417Z,20.08
2019-06-20T07:46:25.860Z,20.09
2019-06-20T07:47:25.817Z,20.12
2019-06-20T07:48:25.798Z,20.08
2019-06-20T07:49:25.789Z,20.14
2019-06-20T07:50:25.781Z,20.26
2019-06-20T07:51:25.764Z,20.25
2019-06-20T07:52:25.733Z,20.36
2019-06-20T07:53:25.715Z,20.37
2019-06-20T07:54:25.702Z,20.48
2019-06-20T07:55:25.725Z,20.49
2019-06-20T07:56:25.674Z,20.63
2019-06-20T07:57:25.649Z,20.73
2019-06-20T07:58:25.635Z,20.85
2019-06-20T07:59:25.638Z,21.00
2019-06-20T08:00:25.612Z,21.04
2019-06-20T08:01:25.607Z,21.07
2019-06-20T08:02:25.596Z,20.92
2019-06-20T08:03:25.565Z,20.97
2019-06-20T08:04:25.559Z,20.89
2019-06-20T08:05:25.570Z,20.88
2019-06-20T08:06:25.547Z,20.77
2019-06-20T08:07:25.529Z,20.65
2019-06-20T08:08:25.515Z,20.71
2019-06-20T08:09:43.653Z,20.48
2019-06-20T08:10:25.605Z,20.32
2019-06-20T08:11:25.461Z,20.33
2019-06-20T08:12:25.485Z,20.48
2019-06-20T08:13:25.459Z,20.42
2019-06-20T08:14:25.417Z,20.63
2019-06-20T08:15:25.401Z,20.68
2019-06-20T08:16:25.430Z,20.71
2019-06-20T08:17:34.962Z,20.56
2019-06-20T08:18:25.358Z,20.68
2019-06-20T08:19:25.370Z,20.56
2019-06-20T08:20:25.435Z,20.44
2019-06-20T08:21:25.391Z,20.39
2019-06-20T08:22:25.316Z,20.53
2019-06-20T08:23:25.290Z,20.67
2019-06-20T08:24:25.298Z,20.71
2019-06-20T08:25:25.493Z,20.77
2019-06-20T08:26:25.255Z,20.85
2019-06-20T08:27:25.248Z,20.92
2019-06-20T08:28:25.226Z,21.08
2019-06-20T08:29:25.228Z,21.14
2019-06-20T08:30:25.197Z,21.35
2019-06-20T08:31:25.201Z,21.65
2019-06-20T08:32:25.178Z,21.80
2019-06-20T08:33:25.156Z,21.78
2019-06-20T08:34:25.213Z,21.90
2019-06-20T08:35:25.147Z,21.88
2019-06-20T08:36:25.125Z,21.80
2019-06-20T08:37:25.121Z,21.84
2019-06-20T08:38:25.119Z,21.82
2019-06-20T08:39:25.078Z,21.67
2019-06-20T08:40:25.063Z,21.60
2019-06-20T08:41:25.062Z,21.67
2019-06-20T08:42:25.067Z,21.67
2019-06-20T08:43:25.036Z,21.62
2019-06-20T08:44:25.027Z,21.59
2019-06-20T08:45:25.014Z,21.71
2019-06-20T08:46:24.997Z,21.88
2019-06-20T08:47:24.999Z,21.81
2019-06-20T08:48:25.083Z,21.78
2019-06-20T08:49:24.965Z,21.78
2019-06-20T08:50:24.942Z,21.58
2019-06-20T08:51:24.983Z,21.38
2019-06-20T08:52:24.941Z,21.30
2019-06-20T08:53:33.666Z,21.18
2019-06-20T08:55:30.714Z,20.97
2019-06-20T08:56:30.355Z,20.83
2019-06-20T08:57:30.319Z,20.77
2019-06-20T08:58:31.384Z,20.88
2019-06-20T08:59:30.328Z,20.92
2019-06-20T09:00:30.311Z,20.90
2019-06-20T09:01:30.265Z,20.93
2019-06-20T09:02:30.254Z,20.83
2019-06-20T09:03:30.418Z,20.67
2019-06-20T09:04:30.303Z,20.56
2019-06-20T09:05:31.053Z,20.56
2019-06-20T09:06:30.221Z,20.53
2019-06-20T09:07:30.201Z,20.49
2019-06-20T09:08:30.203Z,20.67
2019-06-20T09:09:30.182Z,20.80
2019-06-20T09:10:30.318Z,20.74
2019-06-20T09:11:30.128Z,20.79
2019-06-20T09:12:30.135Z,20.90
2019-06-20T09:13:30.107Z,20.77
2019-06-20T09:14:30.143Z,20.85
2019-06-20T09:15:30.263Z,20.92
2019-06-20T09:16:30.098Z,21.07
2019-06-20T09:17:30.150Z,21.18
2019-06-20T09:18:30.079Z,21.20
2019-06-20T09:19:38.704Z,21.48
2019-06-20T09:21:43.526Z,21.84
2019-06-20T09:22:34.466Z,21.90
2019-06-20T09:23:35.761Z,21.88
2019-06-20T09:24:34.440Z,21.75
2019-06-20T09:25:34.581Z,21.53
2019-06-20T09:26:34.944Z,21.40
2019-06-20T09:27:44.851Z,21.20
2019-06-20T09:31:18.985Z,20.98
2019-06-20T09:32:30.712Z,21.10
2019-06-20T09:33:18.944Z,21.08
2019-06-20T09:34:18.834Z,21.19
2019-06-20T09:35:27.510Z,21.23
2019-06-20T09:37:24.707Z,21.18
2019-06-20T09:38:24.353Z,21.20
2019-06-20T09:39:24.352Z,21.16
2019-06-20T09:40:24.259Z,21.18
2019-06-20T09:41:24.300Z,21.35
2019-06-20T09:42:24.300Z,21.41
2019-06-20T09:43:27.845Z,21.58
2019-06-20T09:44:24.211Z,21.55
2019-06-20T09:45:24.183Z,21.45
2019-06-20T09:46:24.199Z,21.59
2019-06-20T09:47:24.142Z,21.58
2019-06-20T09:48:24.149Z,21.58
2019-06-20T09:49:24.109Z,21.58
2019-06-20T09:50:24.107Z,21.67
2019-06-20T09:51:24.084Z,21.75
2019-06-20T09:52:24.080Z,21.82
2019-06-20T09:53:32.794Z,21.85
2019-06-20T09:55:28.643Z,21.97
2019-06-20T09:56:37.172Z,21.98
2019-06-20T09:58:53.188Z,22.18
2019-06-20T09:59:56.123Z,22.33
2019-06-20T10:00:44.248Z,22.48
2019-06-20T10:01:44.330Z,22.56
2019-06-20T10:02:44.166Z,22.71
2019-06-20T10:03:44.141Z,22.77
2019-06-20T10:04:44.139Z,22.76
2019-06-20T10:05:44.110Z,22.89
2019-06-20T10:06:44.093Z,22.77
2019-06-20T10:07:44.107Z,22.67
2019-06-20T10:08:44.087Z,22.73
2019-06-20T10:09:44.076Z,22.80
2019-06-20T10:10:45.447Z,22.70
2019-06-20T10:11:45.322Z,22.73
2019-06-20T10:12:45.198Z,22.62
2019-06-20T10:13:44.997Z,22.62
2019-06-20T10:14:45.439Z,22.73
2019-06-20T10:15:44.914Z,22.59
2019-06-20T10:16:47.500Z,22.59
2019-06-20T10:17:44.020Z,22.70
2019-06-20T10:18:43.946Z,22.70
2019-06-20T10:19:43.983Z,22.93
2019-06-20T10:20:44.368Z,22.83
2019-06-20T10:21:53.781Z,22.93
2019-06-20T10:22:45.486Z,23.01
2019-06-20T10:23:46.026Z,23.25
2019-06-20T10:24:45.777Z,23.42
2019-06-20T10:25:46.044Z,23.34
2019-06-20T10:26:44.910Z,23.13
2019-06-20T10:27:44.842Z,22.86
2019-06-20T10:28:53.099Z,22.62
2019-06-20T10:30:57.880Z,22.27
2019-06-20T10:31:49.027Z,22.21
2019-06-20T10:32:48.679Z,22.13
2019-06-20T10:33:48.458Z,22.03
2019-06-20T10:34:48.406Z,22.00
2019-06-20T10:35:48.457Z,22.00
2019-06-20T10:36:48.275Z,22.09
2019-06-20T10:37:48.527Z,22.07
2019-06-20T10:38:48.186Z,22.18
2019-06-20T10:39:48.204Z,22.36
2019-06-20T10:40:48.153Z,22.55
2019-06-20T10:41:48.540Z,22.68
2019-06-20T10:42:48.253Z,22.77
2019-06-20T10:43:48.094Z,22.77
2019-06-20T10:44:48.126Z,22.92
2019-06-20T10:45:49.407Z,22.98
2019-06-20T10:46:56.740Z,23.21
2019-06-20T10:49:01.650Z,23.73
2019-06-20T10:49:52.824Z,23.81
2019-06-20T10:51:02.202Z,23.96
2019-06-20T10:52:45.858Z,24.00
2019-06-20T10:53:47.113Z,24.01
2019-06-20T10:54:46.996Z,23.85
2019-06-20T10:55:46.961Z,23.85
2019-06-20T10:56:47.040Z,24.01
2019-06-20T10:57:46.715Z,24.11
2019-06-20T10:58:46.366Z,24.23
2019-06-20T10:59:46.506Z,24.16
2019-06-20T11:00:46.193Z,24.03
2019-06-20T11:01:46.642Z,24.07
2019-06-20T11:02:47.023Z,24.21
2019-06-20T11:03:46.069Z,24.15
2019-06-20T11:04:45.725Z,24.03
2019-06-20T11:05:45.679Z,24.07
2019-06-20T11:06:45.764Z,24.07
2019-06-20T11:07:45.756Z,24.21
2019-06-20T11:08:45.662Z,24.29
2019-06-20T11:09:45.652Z,24.33
2019-06-20T11:10:47.203Z,24.40
2019-06-20T11:11:47.003Z,24.47
2019-06-20T11:12:53.044Z,24.45
2019-06-20T11:13:46.569Z,24.53
2019-06-20T11:14:46.218Z,24.44
2019-06-20T11:15:46.204Z,24.37
2019-06-20T11:16:45.606Z,24.31
2019-06-20T11:17:46.307Z,24.19
2019-06-20T11:18:46.353Z,24.11
2019-06-20T11:19:45.817Z,23.96
2019-06-20T11:20:46.645Z,23.91
2019-06-20T11:21:45.753Z,23.70
2019-06-20T11:22:45.512Z,23.51
2019-06-20T11:23:45.478Z,23.37
2019-06-20T11:24:45.499Z,23.52
2019-06-20T11:25:46.634Z,23.56
2019-06-20T11:26:46.014Z,23.66
2019-06-20T11:27:47.128Z,23.64
2019-06-20T11:28:45.469Z,23.54
2019-06-20T11:29:46.529Z,23.56
2019-06-20T11:30:56.112Z,23.51
2019-06-20T11:31:47.566Z,23.60
2019-06-20T11:32:45.785Z,23.67
2019-06-20T11:33:45.402Z,23.70
2019-06-20T11:34:45.367Z,23.82
2019-06-20T11:35:45.373Z,23.97
2019-06-20T11:36:46.712Z,24.01
2019-06-20T11:37:45.385Z,24.16
2019-06-20T11:38:45.771Z,23.98
2019-06-20T11:39:45.392Z,24.00
2019-06-20T11:40:45.422Z,24.01
2019-06-20T11:41:45.282Z,23.98
2019-06-20T11:42:46.765Z,23.73
2019-06-20T11:43:46.794Z,23.55
2019-06-20T11:44:45.279Z,23.51
2019-06-20T11:45:45.254Z,23.63
2019-06-20T11:46:45.238Z,23.66
2019-06-20T11:47:45.260Z,23.71
2019-06-20T11:48:45.210Z,23.81
2019-06-20T11:49:45.194Z,23.98
2019-06-20T11:50:46.291Z,24.07
2019-06-20T11:51:45.227Z,24.21
2019-06-20T11:52:45.895Z,24.28
2019-06-20T11:53:45.154Z,24.16
2019-06-20T11:54:45.156Z,24.13
2019-06-20T11:55:45.145Z,23.94
2019-06-20T11:56:45.149Z,23.85
2019-06-20T11:57:45.137Z,23.84
2019-06-20T11:58:45.111Z,23.69
2019-06-20T11:59:53.876Z,23.67
2019-06-20T12:03:08.034Z,23.64
2019-06-20T12:04:09.503Z,23.45
2019-06-20T12:05:08.131Z,23.49
2019-06-20T12:06:07.892Z,23.54
2019-06-20T12:07:07.928Z,23.37
2019-06-20T12:08:07.881Z,23.42
2019-06-20T12:09:07.862Z,23.36
2019-06-20T12:10:07.830Z,23.25
2019-06-20T12:11:07.847Z,23.08
2019-06-20T12:12:07.812Z,23.04
2019-06-20T12:13:07.829Z,22.99
2019-06-20T12:14:07.784Z,22.77
2019-06-20T12:15:07.785Z,22.74
2019-06-20T12:16:07.795Z,22.58
2019-06-20T12:17:07.774Z,22.38
2019-06-20T12:18:07.807Z,22.23
2019-06-20T12:19:07.774Z,22.04
2019-06-20T12:20:07.804Z,22.07
2019-06-20T12:21:07.751Z,21.85
2019-06-20T12:22:07.776Z,21.80
2019-06-20T12:23:07.711Z,21.67
2019-06-20T12:24:08.658Z,21.45
2019-06-20T12:25:07.717Z,21.32
2019-06-20T12:26:07.717Z,21.22
2019-06-20T12:27:07.624Z,21.16
2019-06-20T12:28:07.675Z,21.19
2019-06-20T12:29:07.647Z,21.18
2019-06-20T12:30:07.618Z,21.08
2019-06-20T12:31:18.861Z,21.19
2019-06-20T12:32:09.974Z,21.26
2019-06-20T12:33:07.576Z,21.14
2019-06-20T12:34:07.545Z,21.00
2019-06-20T12:35:07.559Z,20.95
2019-06-20T12:36:07.524Z,20.93
2019-06-20T12:37:07.488Z,20.95
2019-06-20T12:38:07.502Z,20.90
2019-06-20T12:39:07.467Z,21.00
2019-06-20T12:45:09.165Z,20.95
2019-06-20T12:46:35.821Z,20.85
2019-06-20T12:47:08.155Z,20.83
2019-06-20T12:50:10.498Z,20.97
2019-06-20T12:51:07.315Z,20.98
2019-06-20T12:52:08.030Z,21.10
2019-06-20T12:53:09.858Z,21.22
2019-06-20T12:54:08.887Z,21.44
2019-06-20T12:57:07.374Z,21.73
2019-06-20T13:08:15.393Z,22.09
2019-06-20T13:09:05.512Z,22.09
2019-06-20T13:12:36.383Z,21.91
2019-06-20T13:13:44.397Z,21.88
2019-06-20T13:14:35.105Z,21.84
2019-06-20T13:15:35.559Z,21.84
2019-06-20T13:16:42.763Z,21.88
2019-06-20T13:18:35.380Z,21.65
2019-06-20T13:21:34.984Z,21.48
2019-06-20T13:23:36.675Z,21.50
2019-06-20T13:28:54.154Z,21.66
2019-06-20T13:30:03.583Z,21.73
2019-06-20T13:31:49.972Z,21.74
2019-06-20T13:33:49.891Z,21.81
2019-06-20T13:36:35.500Z,21.96
2019-06-20T13:37:34.780Z,21.85
2019-06-20T13:44:08.045Z,21.51
2019-06-20T13:45:08.727Z,21.48
2019-06-20T13:47:25.081Z,21.40
2019-06-20T13:48:26.070Z,21.45